createdAt,value
2023-05-25T00:00:03.734Z,0.50
2023-05-25T00:01:17.455Z,0.70
2023-05-25T00:02:25.747Z,0.60
2023-05-25T00:03:34.166Z,0.60
2023-05-25T00:04:41.516Z,0.70
2023-05-25T00:05:50.022Z,0.60
2023-05-25T00:06:57.175Z,0.70
2023-05-25T00:08:05.372Z,0.60
2023-05-25T00:09:13.195Z,0.60
2023-05-25T00:10:21.348Z,0.60
2023-05-25T00:11:29.028Z,0.50
2023-05-25T00:12:38.608Z,0.60
2023-05-25T00:13:47.460Z,0.60
2023-05-25T00:14:54.607Z,0.40
2023-05-25T00:16:02.138Z,0.60
2023-05-25T00:17:12.067Z,0.60
2023-05-25T00:18:19.980Z,0.70
2023-05-25T00:19:28.703Z,0.60
2023-05-25T00:20:37.467Z,0.60
2023-05-25T00:21:46.722Z,0.60
2023-05-25T00:22:57.442Z,0.60
2023-05-25T00:24:04.755Z,0.60
2023-05-25T00:25:14.772Z,0.60
2023-05-25T00:26:24.122Z,0.50
2023-05-25T00:27:32.411Z,0.60
2023-05-25T00:28:40.982Z,0.60
2023-05-25T00:29:49.933Z,0.70
2023-05-25T00:30:57.457Z,0.60
2023-05-25T00:32:06.565Z,0.70
2023-05-25T00:33:14.504Z,0.60
2023-05-25T00:34:23.840Z,0.60
2023-05-25T00:35:31.365Z,0.70
2023-05-25T00:36:38.890Z,0.50
2023-05-25T00:37:46.906Z,0.60
2023-05-25T00:38:54.225Z,0.60
2023-05-25T00:40:02.496Z,0.60
2023-05-25T00:41:10.947Z,0.50
2023-05-25T00:42:19.390Z,0.70
2023-05-25T00:43:28.169Z,0.60
2023-05-25T00:44:36.001Z,0.40
2023-05-25T00:45:44.942Z,0.60
2023-05-25T00:46:54.065Z,0.60
2023-05-25T00:48:01.462Z,0.50
2023-05-25T00:49:09.284Z,0.50
2023-05-25T00:50:18.416Z,0.60
2023-05-25T00:51:26.261Z,0.50
2023-05-25T00:52:34.166Z,0.70
2023-05-25T00:53:41.525Z,0.50
2023-05-25T00:54:49.175Z,0.60
2023-05-25T00:56:07.587Z,0.60
2023-05-25T00:57:14.397Z,0.50
2023-05-25T00:58:23.513Z,0.60
2023-05-25T00:59:42.266Z,0.70
2023-05-25T01:00:50.618Z,0.60
2023-05-25T01:02:00.851Z,0.70
2023-05-25T01:03:13.947Z,0.60
2023-05-25T01:04:22.818Z,0.60
2023-05-25T01:05:31.425Z,0.50
2023-05-25T01:06:41.452Z,0.60
2023-05-25T01:07:49.440Z,0.70
2023-05-25T01:09:02.246Z,0.60
2023-05-25T01:10:10.550Z,0.60
2023-05-25T01:11:18.007Z,0.60
2023-05-25T01:12:25.519Z,0.50
2023-05-25T01:13:32.943Z,0.60
2023-05-25T01:14:43.395Z,0.60
2023-05-25T01:15:50.627Z,0.70
2023-05-25T01:16:57.945Z,0.60
2023-05-25T01:18:07.028Z,0.60
2023-05-25T01:19:14.536Z,0.70
2023-05-25T01:20:23.697Z,0.60
2023-05-25T01:21:51.752Z,0.60
2023-05-25T01:23:15.522Z,0.50
2023-05-25T01:24:35.646Z,0.70
2023-05-25T01:25:46.942Z,0.60
2023-05-25T01:27:17.414Z,0.60
2023-05-25T01:28:33.394Z,0.60
2023-05-25T01:29:41.428Z,0.60
2023-05-25T01:30:49.985Z,0.60
2023-05-25T01:31:57.417Z,0.70
2023-05-25T01:33:06.656Z,0.60
2023-05-25T01:34:15.665Z,0.60
2023-05-25T01:35:23.043Z,0.60
2023-05-25T01:36:31.084Z,0.70
2023-05-25T01:37:39.027Z,0.60
2023-05-25T01:38:47.459Z,0.50
2023-05-25T01:39:55.198Z,0.70
2023-05-25T01:41:04.320Z,0.60
2023-05-25T01:42:12.426Z,0.50
2023-05-25T01:43:20.951Z,0.60
2023-05-25T01:44:28.289Z,0.60
2023-05-25T01:45:35.893Z,0.50
2023-05-25T01:46:43.301Z,0.60
2023-05-25T01:48:14.997Z,0.60
2023-05-25T01:49:30.882Z,0.60
2023-05-25T01:51:10.110Z,0.60
2023-05-25T01:52:38.091Z,0.60
2023-05-25T01:53:47.561Z,0.50
2023-05-25T01:55:04.937Z,0.60
2023-05-25T01:56:13.120Z,0.60
2023-05-25T01:57:20.701Z,0.50
2023-05-25T01:58:29.500Z,0.70
2023-05-25T01:59:37.953Z,0.60
2023-05-25T02:00:45.437Z,0.60
2023-05-25T02:01:53.382Z,0.70
2023-05-25T02:03:03.098Z,0.60
2023-05-25T02:04:10.896Z,0.60
2023-05-25T02:05:23.884Z,0.60
2023-05-25T02:06:30.727Z,0.60
2023-05-25T02:07:41.109Z,0.60
2023-05-25T02:08:49.817Z,0.60
2023-05-25T02:09:58.881Z,0.60
2023-05-25T02:11:08.677Z,0.60
2023-05-25T02:12:17.403Z,0.60
2023-05-25T02:13:24.652Z,0.60
2023-05-25T02:14:32.172Z,0.50
2023-05-25T02:15:39.803Z,0.50
2023-05-25T02:16:50.393Z,0.60
2023-05-25T02:17:59.589Z,0.60
2023-05-25T02:19:10.120Z,0.60
2023-05-25T02:20:18.051Z,0.60
2023-05-25T02:21:26.523Z,0.50
2023-05-25T02:22:34.964Z,0.60
2023-05-25T02:23:42.290Z,0.50
2023-05-25T02:24:50.070Z,0.60
2023-05-25T02:25:57.696Z,0.60
2023-05-25T02:27:05.841Z,0.60
2023-05-25T02:28:13.482Z,0.60
2023-05-25T02:29:21.790Z,0.50
2023-05-25T02:30:30.285Z,0.60
2023-05-25T02:31:37.847Z,0.50
2023-05-25T02:32:45.022Z,0.60
2023-05-25T02:33:52.170Z,0.50
2023-05-25T02:34:59.119Z,0.60
2023-05-25T02:36:06.710Z,0.60
2023-05-25T02:37:14.754Z,0.50
2023-05-25T02:38:23.547Z,0.50
2023-05-25T02:39:31.720Z,0.60
2023-05-25T02:40:40.221Z,0.50
2023-05-25T02:41:48.066Z,0.70
2023-05-25T02:42:55.239Z,0.60
2023-05-25T02:44:03.402Z,0.60
2023-05-25T02:45:12.235Z,0.60
2023-05-25T02:46:21.331Z,0.40
2023-05-25T02:47:28.907Z,0.70
2023-05-25T02:48:37.040Z,0.50
2023-05-25T02:49:44.575Z,0.60
2023-05-25T02:50:52.419Z,0.60
2023-05-25T02:52:00.038Z,0.60
2023-05-25T02:53:08.993Z,0.60
2023-05-25T02:54:17.298Z,0.60
2023-05-25T02:55:27.292Z,0.60
2023-05-25T02:56:35.553Z,0.60
2023-05-25T02:57:43.571Z,0.50
2023-05-25T02:58:52.437Z,0.70
2023-05-25T03:00:13.767Z,0.50
2023-05-25T03:01:21.534Z,0.60
2023-05-25T03:02:32.538Z,0.60
2023-05-25T03:03:40.332Z,0.60
2023-05-25T03:04:47.959Z,0.60
2023-05-25T03:05:55.440Z,0.50
2023-05-25T03:07:02.418Z,0.50
2023-05-25T03:08:11.247Z,0.50
2023-05-25T03:09:19.225Z,0.50
2023-05-25T03:10:29.540Z,0.50
2023-05-25T03:11:37.472Z,0.60
2023-05-25T03:12:45.678Z,0.60
2023-05-25T03:13:53.706Z,0.70
2023-05-25T03:15:02.300Z,0.60
2023-05-25T03:16:10.135Z,0.60
2023-05-25T03:17:18.300Z,0.60
2023-05-25T03:18:25.452Z,0.60
2023-05-25T03:19:34.358Z,0.70
2023-05-25T03:20:42.978Z,0.60
2023-05-25T03:21:50.691Z,0.60
2023-05-25T03:23:00.262Z,0.50
2023-05-25T03:24:09.396Z,0.60
2023-05-25T03:25:17.868Z,0.60
2023-05-25T03:26:27.372Z,0.50
2023-05-25T03:27:35.138Z,0.60
2023-05-25T03:28:42.655Z,0.60
2023-05-25T03:29:51.833Z,0.70
2023-05-25T03:30:58.952Z,0.50
2023-05-25T03:32:06.287Z,0.50
2023-05-25T03:33:15.332Z,0.70
2023-05-25T03:34:26.641Z,0.70
2023-05-25T03:35:34.606Z,0.70
2023-05-25T03:36:42.344Z,0.50
2023-05-25T03:37:50.191Z,0.60
2023-05-25T03:38:57.670Z,0.60
2023-05-25T03:40:06.272Z,0.60
2023-05-25T03:41:13.312Z,0.60
2023-05-25T03:42:21.871Z,0.60
2023-05-25T03:43:29.106Z,0.50
2023-05-25T03:44:39.294Z,0.60
2023-05-25T03:45:48.957Z,0.60
2023-05-25T03:46:56.400Z,0.60
2023-05-25T03:48:05.320Z,0.60
2023-05-25T03:49:15.408Z,0.50
2023-05-25T03:50:23.186Z,0.70
2023-05-25T03:51:31.298Z,0.60
2023-05-25T03:52:38.818Z,0.50
2023-05-25T03:53:47.409Z,0.50
2023-05-25T03:54:55.136Z,0.50
2023-05-25T03:56:03.792Z,0.60
2023-05-25T03:57:11.957Z,0.60
2023-05-25T03:58:19.949Z,0.60
2023-05-25T03:59:27.529Z,0.60
2023-05-25T04:00:35.007Z,0.60
2023-05-25T04:01:42.163Z,0.60
2023-05-25T04:02:49.486Z,0.60
2023-05-25T04:03:57.217Z,0.70
2023-05-25T04:05:06.029Z,0.70
2023-05-25T04:06:13.626Z,0.60
2023-05-25T04:07:22.648Z,0.70
2023-05-25T04:08:31.768Z,0.60
2023-05-25T04:09:39.554Z,0.70
2023-05-25T04:10:47.498Z,0.60
2023-05-25T04:11:55.224Z,0.60
2023-05-25T04:13:04.113Z,0.60
2023-05-25T04:14:11.443Z,0.60
2023-05-25T04:15:20.432Z,0.70
2023-05-25T04:16:36.657Z,0.50
2023-05-25T04:17:44.187Z,0.60
2023-05-25T04:18:51.686Z,0.60
2023-05-25T04:19:59.705Z,0.70
2023-05-25T04:21:10.144Z,0.70
2023-05-25T04:22:17.729Z,0.70
2023-05-25T04:23:25.584Z,0.70
2023-05-25T04:24:34.947Z,0.70
2023-05-25T04:25:44.890Z,0.60
2023-05-25T04:26:52.765Z,0.60
2023-05-25T04:28:00.514Z,0.50
2023-05-25T04:29:28.796Z,0.60
2023-05-25T04:30:59.662Z,0.60
2023-05-25T04:32:23.006Z,0.60
2023-05-25T04:33:35.634Z,0.70
2023-05-25T04:34:51.836Z,0.70
2023-05-25T04:36:02.686Z,0.70
2023-05-25T04:37:10.935Z,0.60
2023-05-25T04:38:19.084Z,0.60
2023-05-25T04:39:29.738Z,0.60
2023-05-25T04:40:36.911Z,0.70
2023-05-25T04:41:45.549Z,0.60
2023-05-25T04:42:55.547Z,0.50
2023-05-25T04:44:09.011Z,0.70
2023-05-25T04:45:23.039Z,0.70
2023-05-25T04:46:39.457Z,0.60
2023-05-25T04:47:51.584Z,0.70
2023-05-25T04:48:59.009Z,0.70
2023-05-25T04:50:07.186Z,0.60
2023-05-25T04:51:15.586Z,0.60
2023-05-25T04:52:23.072Z,0.60
2023-05-25T04:53:31.876Z,0.70
2023-05-25T04:54:40.146Z,0.60
2023-05-25T04:55:48.838Z,0.60
2023-05-25T04:56:56.528Z,0.60
2023-05-25T04:58:05.162Z,0.60
2023-05-25T04:59:13.978Z,0.50
2023-05-25T05:00:23.684Z,0.70
2023-05-25T05:01:35.431Z,0.60
2023-05-25T05:02:43.823Z,0.70
2023-05-25T05:03:51.142Z,0.70
2023-05-25T05:04:58.262Z,0.60
2023-05-25T05:06:06.766Z,0.70
2023-05-25T05:07:14.905Z,0.70
2023-05-25T05:08:24.678Z,0.70
2023-05-25T05:09:32.202Z,0.60
2023-05-25T05:10:41.973Z,0.60
2023-05-25T05:11:49.512Z,0.80
2023-05-25T05:12:57.624Z,0.70
2023-05-25T05:14:06.143Z,0.70
2023-05-25T05:15:13.855Z,0.70
2023-05-25T05:16:23.220Z,0.70
2023-05-25T05:17:32.913Z,0.70
2023-05-25T05:18:40.992Z,0.80
2023-05-25T05:19:49.351Z,0.70
2023-05-25T05:20:56.597Z,0.70
2023-05-25T05:22:05.359Z,0.90
2023-05-25T05:23:13.181Z,0.70
2023-05-25T05:24:20.844Z,0.60
2023-05-25T05:25:28.300Z,0.70
2023-05-25T05:26:52.094Z,0.70
2023-05-25T05:28:08.307Z,0.60
2023-05-25T05:29:21.203Z,0.80
2023-05-25T05:30:28.604Z,0.80
2023-05-25T05:31:38.522Z,0.70
2023-05-25T05:32:46.796Z,0.70
2023-05-25T05:33:55.275Z,0.60
2023-05-25T05:35:04.231Z,0.80
2023-05-25T05:36:21.332Z,0.70
2023-05-25T05:37:29.839Z,0.70
2023-05-25T05:38:39.960Z,0.70
2023-05-25T05:39:48.639Z,0.70
2023-05-25T05:40:55.608Z,0.70
2023-05-25T05:42:04.132Z,0.60
2023-05-25T05:43:15.841Z,0.80
2023-05-25T05:44:27.806Z,0.50
2023-05-25T05:45:37.502Z,0.70
2023-05-25T05:46:46.074Z,0.70
2023-05-25T05:47:53.521Z,0.70
2023-05-25T05:49:01.342Z,0.70
2023-05-25T05:50:10.795Z,0.80
2023-05-25T05:51:19.490Z,0.70
2023-05-25T05:52:27.006Z,0.70
2023-05-25T05:53:33.913Z,0.60
2023-05-25T05:54:43.030Z,0.70
2023-05-25T05:55:56.378Z,0.70
2023-05-25T05:57:05.377Z,0.60
2023-05-25T05:58:14.179Z,0.80
2023-05-25T05:59:24.274Z,0.60
2023-05-25T06:00:32.634Z,0.80
2023-05-25T06:01:40.476Z,0.60
2023-05-25T06:02:47.751Z,0.60
2023-05-25T06:03:59.460Z,0.70
2023-05-25T06:05:08.623Z,0.90
2023-05-25T06:06:17.945Z,0.80
2023-05-25T06:07:25.073Z,0.70
2023-05-25T06:08:32.598Z,0.80
2023-05-25T06:09:39.549Z,0.80
2023-05-25T06:10:47.395Z,0.80
2023-05-25T06:11:54.493Z,0.80
2023-05-25T06:13:01.281Z,0.70
2023-05-25T06:14:08.463Z,0.70
2023-05-25T06:15:15.789Z,0.80
2023-05-25T06:16:23.396Z,0.70
2023-05-25T06:17:41.307Z,0.80
2023-05-25T06:18:51.308Z,0.80
2023-05-25T06:19:58.877Z,0.80
2023-05-25T06:21:08.866Z,0.80
2023-05-25T06:22:17.246Z,0.70
2023-05-25T06:23:26.648Z,0.80
2023-05-25T06:24:34.549Z,0.70
2023-05-25T06:25:42.729Z,0.70
2023-05-25T06:26:51.149Z,0.80
2023-05-25T06:28:00.831Z,0.70
2023-05-25T06:29:08.648Z,0.80
2023-05-25T06:30:16.435Z,0.70
2023-05-25T06:31:23.871Z,0.70
2023-05-25T06:32:33.112Z,0.80
2023-05-25T06:33:42.031Z,0.90
2023-05-25T06:34:50.022Z,0.80
2023-05-25T06:36:01.586Z,0.90
2023-05-25T06:37:14.339Z,0.80
2023-05-25T06:38:25.389Z,0.80
2023-05-25T06:39:33.036Z,0.80
2023-05-25T06:40:42.710Z,0.70
2023-05-25T06:41:52.928Z,0.80
2023-05-25T06:43:10.847Z,0.80
2023-05-25T06:44:40.894Z,0.80
2023-05-25T06:45:49.288Z,0.80
2023-05-25T06:47:04.391Z,0.80
2023-05-25T06:48:13.349Z,0.70
2023-05-25T06:49:23.317Z,0.80
2023-05-25T06:50:31.342Z,0.80
2023-05-25T06:51:38.954Z,0.60
2023-05-25T06:52:46.438Z,0.80
2023-05-25T06:53:53.902Z,0.80
2023-05-25T06:55:06.297Z,0.80
2023-05-25T06:56:14.439Z,0.90
2023-05-25T06:57:22.564Z,0.70
2023-05-25T06:58:31.346Z,0.80
2023-05-25T06:59:39.829Z,0.70
2023-05-25T07:00:49.288Z,0.80
2023-05-25T07:01:57.700Z,0.90
2023-05-25T07:03:05.920Z,0.70
2023-05-25T07:04:13.654Z,0.70
2023-05-25T07:05:21.634Z,0.80
2023-05-25T07:06:32.299Z,0.80
2023-05-25T07:07:43.375Z,0.80
2023-05-25T07:08:53.734Z,0.80
2023-05-25T07:10:01.960Z,0.80
2023-05-25T07:11:13.633Z,0.80
2023-05-25T07:12:28.670Z,0.80
2023-05-25T07:13:47.030Z,0.90
2023-05-25T07:14:55.046Z,0.80
2023-05-25T07:16:05.720Z,0.90
2023-05-25T07:17:19.043Z,0.70
2023-05-25T07:18:30.072Z,0.80
2023-05-25T07:19:42.123Z,0.70
2023-05-25T07:20:54.977Z,0.70
2023-05-25T07:22:05.801Z,0.80
2023-05-25T07:23:15.520Z,0.70
2023-05-25T07:24:27.471Z,0.90
2023-05-25T07:25:36.603Z,0.90
2023-05-25T07:26:47.031Z,0.80
2023-05-25T07:27:59.720Z,1.00
2023-05-25T07:29:08.548Z,0.70
2023-05-25T07:30:18.886Z,0.90
2023-05-25T07:31:27.600Z,0.80
2023-05-25T07:32:40.459Z,0.90
2023-05-25T07:33:53.015Z,0.80
2023-05-25T07:35:00.832Z,0.70
2023-05-25T07:36:12.795Z,0.80
2023-05-25T07:37:20.632Z,0.80
2023-05-25T07:38:28.152Z,0.80
2023-05-25T07:39:35.999Z,0.80
2023-05-25T07:40:47.857Z,0.80
2023-05-25T07:41:56.253Z,1.00
2023-05-25T07:43:08.809Z,0.80
2023-05-25T07:44:16.781Z,0.90
2023-05-25T07:45:24.696Z,0.90
2023-05-25T07:46:35.111Z,0.80
2023-05-25T07:47:44.595Z,0.80
2023-05-25T07:48:53.773Z,0.80
2023-05-25T07:50:00.501Z,0.90
2023-05-25T07:51:10.405Z,0.90
2023-05-25T07:52:20.801Z,0.80
2023-05-25T07:53:28.959Z,0.80
2023-05-25T07:54:42.606Z,0.80
2023-05-25T07:55:52.272Z,0.80
2023-05-25T07:57:03.674Z,0.80
2023-05-25T07:58:14.310Z,0.80
2023-05-25T07:59:23.595Z,0.90
2023-05-25T08:00:33.623Z,0.90
2023-05-25T08:01:42.316Z,0.90
2023-05-25T08:02:49.950Z,0.70
2023-05-25T08:03:56.912Z,1.00
2023-05-25T08:05:07.648Z,0.80
2023-05-25T08:06:15.335Z,0.80
2023-05-25T08:07:23.513Z,0.80
2023-05-25T08:08:31.742Z,0.90
2023-05-25T08:09:38.865Z,1.00
2023-05-25T08:10:47.486Z,0.80
2023-05-25T08:12:01.075Z,0.80
2023-05-25T08:13:20.950Z,0.90
2023-05-25T08:14:29.081Z,0.90
2023-05-25T08:15:36.970Z,0.80
2023-05-25T08:16:45.837Z,0.90
2023-05-25T08:17:53.382Z,0.80
2023-05-25T08:19:02.704Z,0.90
2023-05-25T08:20:12.193Z,0.80
2023-05-25T08:21:19.833Z,0.90
2023-05-25T08:22:28.162Z,0.80
2023-05-25T08:23:35.718Z,0.80
2023-05-25T08:24:44.476Z,0.80
2023-05-25T08:25:52.786Z,0.80
2023-05-25T08:27:01.420Z,0.80
2023-05-25T08:28:10.868Z,0.70
2023-05-25T08:29:19.429Z,1.00
2023-05-25T08:30:27.114Z,1.10
2023-05-25T08:31:34.460Z,1.00
2023-05-25T08:32:42.590Z,0.80
2023-05-25T08:33:51.675Z,0.90
2023-05-25T08:35:00.459Z,0.90
2023-05-25T08:36:08.408Z,0.80
2023-05-25T08:37:16.842Z,0.80
2023-05-25T08:38:27.573Z,0.90
2023-05-25T08:39:35.419Z,0.90
2023-05-25T08:40:44.487Z,0.90
2023-05-25T08:41:51.767Z,0.70
2023-05-25T08:42:59.186Z,0.80
2023-05-25T08:44:10.227Z,0.80
2023-05-25T08:45:33.599Z,0.90
2023-05-25T08:46:43.569Z,0.90
2023-05-25T08:47:51.552Z,0.80
2023-05-25T08:49:06.535Z,0.90
2023-05-25T08:50:14.428Z,0.90
2023-05-25T08:51:20.966Z,0.70
2023-05-25T08:52:29.209Z,1.00
2023-05-25T08:53:42.078Z,0.80
2023-05-25T08:54:50.267Z,1.00
2023-05-25T08:55:57.320Z,0.90
2023-05-25T08:57:15.212Z,0.80
2023-05-25T08:58:25.701Z,0.80
2023-05-25T08:59:54.078Z,0.80
2023-05-25T09:01:03.816Z,0.80
2023-05-25T09:02:35.533Z,0.90
2023-05-25T09:03:43.148Z,1.00
2023-05-25T09:04:51.418Z,1.00
2023-05-25T09:05:59.413Z,0.70
2023-05-25T09:07:10.777Z,0.80
2023-05-25T09:08:19.021Z,0.80
2023-05-25T09:09:26.517Z,0.80
2023-05-25T09:10:35.342Z,0.90
2023-05-25T09:11:44.289Z,0.70
2023-05-25T09:12:53.024Z,0.90
2023-05-25T09:14:00.940Z,0.80
2023-05-25T09:15:09.554Z,0.70
2023-05-25T09:16:17.766Z,0.70
2023-05-25T09:17:26.850Z,0.80
2023-05-25T09:18:34.655Z,0.80
2023-05-25T09:19:43.021Z,0.70
2023-05-25T09:20:50.570Z,0.80
2023-05-25T09:22:07.104Z,0.90
2023-05-25T09:23:23.321Z,0.70
2023-05-25T09:24:31.723Z,1.00
2023-05-25T09:25:39.975Z,0.90
2023-05-25T09:26:50.427Z,0.80
2023-05-25T09:28:10.157Z,0.80
2023-05-25T09:29:28.288Z,1.00
2023-05-25T09:30:36.587Z,0.80
2023-05-25T09:31:43.982Z,0.90
2023-05-25T09:32:51.516Z,0.80
2023-05-25T09:34:02.418Z,0.90
2023-05-25T09:35:11.217Z,0.90
2023-05-25T09:36:19.093Z,0.80
2023-05-25T09:37:27.122Z,0.80
2023-05-25T09:38:34.527Z,0.90
2023-05-25T09:39:43.422Z,0.80
2023-05-25T09:40:50.486Z,0.90
2023-05-25T09:41:57.546Z,0.80
2023-05-25T09:43:05.490Z,0.70
2023-05-25T09:44:13.240Z,1.00
2023-05-25T09:45:24.299Z,1.00
2023-05-25T09:46:33.821Z,1.00
2023-05-25T09:47:41.921Z,0.80
2023-05-25T09:48:50.688Z,0.80
2023-05-25T09:50:01.759Z,0.80
2023-05-25T09:51:11.336Z,1.00
2023-05-25T09:52:19.018Z,0.70
2023-05-25T09:53:26.703Z,1.10
2023-05-25T09:54:34.548Z,0.90
2023-05-25T09:55:53.287Z,0.80
2023-05-25T09:57:07.184Z,0.80
2023-05-25T09:58:15.887Z,0.90
2023-05-25T09:59:25.109Z,1.00
2023-05-25T10:00:33.584Z,0.90
2023-05-25T10:01:42.045Z,0.90
2023-05-25T10:02:51.586Z,0.80
2023-05-25T10:04:04.624Z,0.70
2023-05-25T10:05:13.043Z,0.80
2023-05-25T10:06:20.882Z,0.70
2023-05-25T10:07:29.275Z,0.80
2023-05-25T10:08:36.548Z,0.70
2023-05-25T10:09:44.133Z,0.80
2023-05-25T10:10:53.952Z,0.90
2023-05-25T10:12:01.373Z,1.00
2023-05-25T10:13:09.101Z,0.90
2023-05-25T10:14:18.390Z,0.90
2023-05-25T10:15:26.701Z,0.80
2023-05-25T10:16:34.332Z,0.80
2023-05-25T10:17:47.249Z,0.80
2023-05-25T10:19:07.117Z,0.90
2023-05-25T10:20:16.409Z,0.90
2023-05-25T10:21:24.383Z,0.80
2023-05-25T10:22:47.668Z,0.90
2023-05-25T10:23:57.437Z,0.90
2023-05-25T10:25:28.160Z,0.80
2023-05-25T10:26:38.026Z,1.00
2023-05-25T10:27:50.738Z,0.80
2023-05-25T10:29:02.939Z,0.80
2023-05-25T10:30:13.024Z,0.90
2023-05-25T10:31:20.611Z,0.80
2023-05-25T10:32:28.864Z,1.00
2023-05-25T10:33:36.545Z,1.00
2023-05-25T10:34:44.893Z,0.90
2023-05-25T10:36:03.088Z,0.80
2023-05-25T10:37:18.220Z,0.70
2023-05-25T10:38:28.523Z,0.90
2023-05-25T10:39:37.185Z,0.80
2023-05-25T10:40:45.646Z,0.70
2023-05-25T10:41:55.180Z,0.80
2023-05-25T10:43:02.947Z,0.90
2023-05-25T10:44:11.528Z,0.80
2023-05-25T10:45:18.777Z,0.90
2023-05-25T10:46:25.845Z,0.80
2023-05-25T10:47:32.844Z,0.80
2023-05-25T10:48:43.599Z,0.90
2023-05-25T10:49:56.339Z,1.00
2023-05-25T10:51:03.064Z,0.90
2023-05-25T10:52:09.787Z,0.90
2023-05-25T10:53:23.438Z,0.80
2023-05-25T10:54:37.971Z,0.80
2023-05-25T10:56:02.570Z,1.00
2023-05-25T10:57:12.949Z,0.80
2023-05-25T10:58:21.244Z,0.90
2023-05-25T10:59:30.229Z,0.70
2023-05-25T11:00:37.476Z,0.80
2023-05-25T11:01:53.580Z,0.70
2023-05-25T11:03:01.073Z,0.90
2023-05-25T11:04:18.842Z,0.90
2023-05-25T11:05:39.934Z,0.70
2023-05-25T11:07:09.662Z,0.80
2023-05-25T11:08:19.068Z,0.90
2023-05-25T11:09:34.294Z,0.70
2023-05-25T11:10:54.750Z,0.80
2023-05-25T11:12:04.913Z,0.80
2023-05-25T11:13:40.396Z,0.80
2023-05-25T11:15:10.587Z,0.90
2023-05-25T11:16:25.967Z,0.70
2023-05-25T11:17:34.559Z,0.70
2023-05-25T11:18:51.561Z,1.00
2023-05-25T11:20:04.426Z,0.90
2023-05-25T11:21:47.918Z,0.90
2023-05-25T11:22:54.667Z,0.90
2023-05-25T11:24:05.985Z,0.80
2023-05-25T11:25:42.713Z,0.80
2023-05-25T11:26:57.523Z,0.90
2023-05-25T11:28:08.707Z,0.90
2023-05-25T11:29:17.971Z,0.70
2023-05-25T11:30:30.462Z,0.90
2023-05-25T11:31:41.479Z,0.80
2023-05-25T11:32:53.504Z,0.90
2023-05-25T11:34:01.864Z,0.80
2023-05-25T11:35:11.295Z,0.80
2023-05-25T11:36:17.945Z,1.00
2023-05-25T11:37:28.216Z,0.90
2023-05-25T11:38:37.084Z,0.80
2023-05-25T11:39:49.347Z,1.00
2023-05-25T11:40:56.601Z,0.80
2023-05-25T11:42:08.543Z,0.80
2023-05-25T11:43:16.374Z,0.90
2023-05-25T11:44:35.690Z,0.70
2023-05-25T11:45:43.054Z,1.00
2023-05-25T11:46:50.925Z,0.80
2023-05-25T11:47:58.652Z,1.00
2023-05-25T11:49:06.545Z,1.00
2023-05-25T11:50:18.517Z,0.80
2023-05-25T11:51:28.543Z,0.90
2023-05-25T11:52:37.330Z,0.90
2023-05-25T11:53:46.129Z,0.80
2023-05-25T11:54:54.286Z,0.70
2023-05-25T11:56:07.861Z,0.80
2023-05-25T11:57:19.585Z,0.80
2023-05-25T11:58:27.100Z,0.80
2023-05-25T11:59:36.072Z,0.90
2023-05-25T12:00:44.366Z,0.70
2023-05-25T12:02:07.247Z,0.80
2023-05-25T12:03:34.416Z,0.80
2023-05-25T12:04:42.207Z,0.80
2023-05-25T12:05:50.659Z,0.70
2023-05-25T12:07:08.696Z,0.80
2023-05-25T12:08:16.682Z,0.70
2023-05-25T12:09:24.108Z,0.90
2023-05-25T12:10:31.036Z,0.70
2023-05-25T12:11:39.846Z,0.80
2023-05-25T12:12:52.059Z,0.70
2023-05-25T12:13:59.256Z,0.70
2023-05-25T12:15:11.961Z,0.90
2023-05-25T12:16:19.440Z,0.70
2023-05-25T12:17:28.493Z,0.70
2023-05-25T12:18:36.415Z,0.80
2023-05-25T12:19:44.712Z,0.70
2023-05-25T12:20:53.046Z,0.80
2023-05-25T12:21:59.742Z,0.80
2023-05-25T12:23:07.132Z,0.70
2023-05-25T12:24:15.889Z,0.80
2023-05-25T12:25:26.043Z,0.80
2023-05-25T12:26:34.127Z,0.80
2023-05-25T12:27:45.300Z,0.70
2023-05-25T12:29:06.143Z,0.70
2023-05-25T12:30:14.310Z,0.60
2023-05-25T12:31:26.451Z,0.80
2023-05-25T12:32:35.156Z,0.90
2023-05-25T12:33:43.587Z,0.70
2023-05-25T12:34:51.691Z,0.80
2023-05-25T12:35:58.619Z,0.80
2023-05-25T12:37:06.831Z,0.60
2023-05-25T12:38:16.401Z,0.80
2023-05-25T12:39:36.930Z,0.80
2023-05-25T12:40:46.893Z,0.70
2023-05-25T12:41:56.532Z,0.60
2023-05-25T12:43:04.733Z,0.60
2023-05-25T12:44:34.536Z,0.70
2023-05-25T12:45:43.843Z,0.60
2023-05-25T12:46:52.117Z,0.60
2023-05-25T12:48:02.210Z,0.60
2023-05-25T12:49:34.376Z,0.60
2023-05-25T12:51:02.860Z,0.70
2023-05-25T12:52:10.779Z,0.60
2023-05-25T12:53:19.555Z,0.70
2023-05-25T12:54:48.104Z,0.80
2023-05-25T12:56:06.002Z,0.70
2023-05-25T12:57:15.744Z,0.70
2023-05-25T12:58:30.939Z,0.60
2023-05-25T12:59:39.162Z,0.70
2023-05-25T13:00:47.432Z,0.70
2023-05-25T13:01:54.715Z,0.70
2023-05-25T13:03:02.550Z,0.70
2023-05-25T13:04:11.505Z,0.60
2023-05-25T13:05:34.362Z,0.70
2023-05-25T13:06:41.421Z,0.60
2023-05-25T13:07:49.235Z,0.70
2023-05-25T13:08:57.298Z,0.70
2023-05-25T13:10:04.932Z,0.60
2023-05-25T13:11:13.030Z,0.80
2023-05-25T13:12:21.179Z,0.60
2023-05-25T13:13:28.706Z,0.70
2023-05-25T13:14:36.217Z,0.80
2023-05-25T13:15:43.452Z,0.70
2023-05-25T13:16:51.236Z,0.70
2023-05-25T13:18:02.355Z,0.60
2023-05-25T13:19:10.767Z,0.60
2023-05-25T13:20:20.128Z,0.60
2023-05-25T13:21:28.265Z,0.70
2023-05-25T13:22:36.846Z,0.80
2023-05-25T13:23:45.082Z,0.70
2023-05-25T13:24:52.211Z,0.70
2023-05-25T13:26:00.406Z,0.80
2023-05-25T13:27:08.304Z,0.70
2023-05-25T13:28:16.757Z,0.70
2023-05-25T13:29:26.537Z,0.70
2023-05-25T13:30:33.665Z,0.50
2023-05-25T13:31:42.383Z,0.70
2023-05-25T13:32:51.691Z,0.70
2023-05-25T13:34:03.589Z,0.70
2023-05-25T13:35:19.873Z,0.60
2023-05-25T13:36:28.526Z,0.70
2023-05-25T13:37:36.741Z,0.70
2023-05-25T13:38:44.432Z,0.80
2023-05-25T13:39:52.281Z,0.70
2023-05-25T13:40:59.485Z,0.60
2023-05-25T13:42:08.592Z,0.70
2023-05-25T13:43:16.030Z,0.70
2023-05-25T13:44:23.677Z,0.60
2023-05-25T13:45:31.775Z,0.70
2023-05-25T13:46:39.419Z,0.60
2023-05-25T13:47:47.439Z,0.70
2023-05-25T13:48:55.047Z,0.70
2023-05-25T13:50:03.697Z,0.60
2023-05-25T13:51:10.708Z,0.70
2023-05-25T13:52:18.005Z,0.60
2023-05-25T13:53:25.643Z,0.60
2023-05-25T13:54:38.684Z,0.80
2023-05-25T13:55:46.258Z,0.70
2023-05-25T13:56:54.373Z,0.70
2023-05-25T13:58:03.807Z,0.60
2023-05-25T13:59:10.709Z,0.50
2023-05-25T14:00:18.149Z,0.70
2023-05-25T14:01:30.658Z,0.60
2023-05-25T14:02:39.075Z,0.60
2023-05-25T14:03:47.082Z,0.60
2023-05-25T14:04:54.999Z,0.60
2023-05-25T14:06:03.798Z,0.70
2023-05-25T14:07:11.345Z,0.70
2023-05-25T14:08:19.340Z,0.60
2023-05-25T14:09:27.629Z,0.60
2023-05-25T14:10:34.872Z,0.40
2023-05-25T14:11:42.420Z,0.70
2023-05-25T14:12:49.618Z,0.70
2023-05-25T14:13:56.830Z,0.80
2023-05-25T14:15:04.961Z,0.60
2023-05-25T14:16:13.797Z,0.70
2023-05-25T14:17:22.247Z,0.80
2023-05-25T14:18:30.477Z,0.60
2023-05-25T14:19:38.891Z,0.60
2023-05-25T14:20:46.876Z,0.50
2023-05-25T14:22:04.245Z,0.60
2023-05-25T14:23:20.648Z,0.70
2023-05-25T14:24:29.139Z,0.70
2023-05-25T14:25:36.934Z,0.60
2023-05-25T14:26:45.200Z,0.60
2023-05-25T14:27:52.423Z,0.50
2023-05-25T14:28:59.114Z,0.60
2023-05-25T14:30:08.810Z,0.60
2023-05-25T14:31:16.392Z,0.70
2023-05-25T14:32:26.001Z,0.60
2023-05-25T14:33:34.432Z,0.60
2023-05-25T14:34:42.565Z,0.60
2023-05-25T14:35:50.890Z,0.60
2023-05-25T14:36:58.022Z,0.70
2023-05-25T14:38:06.828Z,0.50
2023-05-25T14:39:17.119Z,0.60
2023-05-25T14:40:25.002Z,0.60
2023-05-25T14:41:32.484Z,0.60
2023-05-25T14:42:40.975Z,0.70
2023-05-25T14:43:49.128Z,0.70
2023-05-25T14:44:56.730Z,0.60
2023-05-25T14:46:04.498Z,0.70
2023-05-25T14:47:12.979Z,0.60
2023-05-25T14:48:24.436Z,0.60
2023-05-25T14:49:32.362Z,0.60
2023-05-25T14:50:39.997Z,0.70
2023-05-25T14:51:47.465Z,0.60
2023-05-25T14:52:55.032Z,0.50
2023-05-25T14:54:05.434Z,0.60
2023-05-25T14:55:13.545Z,0.70
2023-05-25T14:56:25.049Z,0.70
2023-05-25T14:57:32.624Z,0.70
2023-05-25T14:58:39.932Z,0.60
2023-05-25T14:59:47.065Z,0.70
2023-05-25T15:00:54.071Z,0.60
2023-05-25T15:02:01.750Z,0.70
2023-05-25T15:03:09.396Z,0.70
2023-05-25T15:04:17.004Z,0.70
2023-05-25T15:05:24.672Z,0.80
2023-05-25T15:06:33.068Z,0.60
2023-05-25T15:07:40.032Z,0.70
2023-05-25T15:08:47.301Z,0.50
2023-05-25T15:09:54.632Z,0.40
2023-05-25T15:11:01.728Z,0.60
2023-05-25T15:12:10.387Z,0.60
2023-05-25T15:13:18.078Z,0.60
2023-05-25T15:14:26.608Z,0.60
2023-05-25T15:15:35.201Z,0.50
2023-05-25T15:16:42.737Z,0.60
2023-05-25T15:17:50.686Z,0.50
2023-05-25T15:18:58.308Z,0.50
2023-05-25T15:20:06.592Z,0.50
2023-05-25T15:21:15.274Z,0.40
2023-05-25T15:22:23.772Z,0.40
2023-05-25T15:23:33.351Z,0.40
2023-05-25T15:24:41.363Z,0.40
2023-05-25T15:25:49.063Z,0.50
2023-05-25T15:26:56.532Z,0.40
2023-05-25T15:28:05.217Z,0.50
2023-05-25T15:29:13.358Z,0.40
2023-05-25T15:30:20.679Z,0.40